sensor_id;sensor_type;location;lat;lon;timestamp;pressure;altitude;pressure_sealevel;temperature;humidity
64544;BME280;50936;51.660;5.616;2023-02-21T00:00:33;101729.19;;;8.25;100.00
64544;BME280;50936;51.660;5.616;2023-02-21T00:03:18;101739.09;;;8.24;100.00
64544;BME280;50936;51.660;5.616;2023-02-21T00:06:07;101734.56;;;8.25;100.00
64544;BME280;50936;51.660;5.616;2023-02-21T00:08:53;101738.19;;;8.24;100.00
64544;BME280;50936;51.660;5.616;2023-02-21T00:11:43;101735.50;;;8.24;100.00
64544;BME280;50936;51.660;5.616;2023-02-21T00:14:29;101729.19;;;8.25;100.00
64544;BME280;50936;51.660;5.616;2023-02-21T00:17:14;101725.72;;;8.23;100.00
64544;BME280;50936;51.660;5.616;2023-02-21T00:20:00;101723.16;;;8.20;100.00
64544;BME280;50936;51.660;5.616;2023-02-21T00:22:46;101727.72;;;8.18;100.00
64544;BME280;50936;51.660;5.616;2023-02-21T00:25:31;101725.97;;;8.17;100.00
64544;BME280;50936;51.660;5.616;2023-02-21T00:28:16;101733.16;;;8.16;100.00
64544;BME280;50936;51.660;5.616;2023-02-21T00:31:03;101737.56;;;8.19;100.00
64544;BME280;50936;51.660;5.616;2023-02-21T00:33:50;101728.47;;;8.21;100.00
64544;BME280;50936;51.660;5.616;2023-02-21T00:36:35;101729.31;;;8.22;100.00
64544;BME280;50936;51.660;5.616;2023-02-21T00:39:20;101732.09;;;8.20;100.00
64544;BME280;50936;51.660;5.616;2023-02-21T00:42:06;101723.16;;;8.20;100.00
64544;BME280;50936;51.660;5.616;2023-02-21T00:44:51;101732.25;;;8.17;100.00
64544;BME280;50936;51.660;5.616;2023-02-21T00:47:36;101726.88;;;8.17;100.00
64544;BME280;50936;51.660;5.616;2023-02-21T00:50:22;101734.03;;;8.17;100.00
64544;BME280;50936;51.660;5.616;2023-02-21T00:53:07;101731.50;;;8.14;100.00
64544;BME280;50936;51.660;5.616;2023-02-21T00:55:53;101741.38;;;8.13;100.00
64544;BME280;50936;51.660;5.616;2023-02-21T00:58:38;101731.56;;;8.12;100.00
64544;BME280;50936;51.660;5.616;2023-02-21T01:01:24;101722.75;;;8.08;100.00
64544;BME280;50936;51.660;5.616;2023-02-21T01:04:09;101714.75;;;8.07;100.00
64544;BME280;50936;51.660;5.616;2023-02-21T01:06:54;101711.25;;;8.05;100.00
64544;BME280;50936;51.660;5.616;2023-02-21T01:09:41;101706.91;;;8.02;100.00
64544;BME280;50936;51.660;5.616;2023-02-21T01:12:26;101703.47;;;7.99;100.00
64544;BME280;50936;51.660;5.616;2023-02-21T01:15:11;101704.47;;;7.96;100.00
64544;BME280;50936;51.660;5.616;2023-02-21T01:17:58;101700.84;;;7.97;100.00
64544;BME280;50936;51.660;5.616;2023-02-21T01:20:43;101705.28;;;7.98;100.00
64544;BME280;50936;51.660;5.616;2023-02-21T01:23:30;101700.84;;;7.97;100.00
64544;BME280;50936;51.660;5.616;2023-02-21T01:26:15;101694.50;;;7.98;100.00
64544;BME280;50936;51.660;5.616;2023-02-21T01:29:01;101698.16;;;7.97;100.00
64544;BME280;50936;51.660;5.616;2023-02-21T01:31:48;101700.84;;;7.97;100.00
64544;BME280;50936;51.660;5.616;2023-02-21T01:34:34;101697.38;;;7.95;100.00
64544;BME280;50936;51.660;5.616;2023-02-21T01:37:19;101697.44;;;7.94;100.00
64544;BME280;50936;51.660;5.616;2023-02-21T01:40:05;101699.25;;;7.93;100.00
64544;BME280;50936;51.660;5.616;2023-02-21T01:42:50;101696.56;;;7.93;100.00
64544;BME280;50936;51.660;5.616;2023-02-21T01:48:22;101692.91;;;7.94;100.00
64544;BME280;50936;51.660;5.616;2023-02-21T01:51:11;101693.78;;;7.95;100.00
64544;BME280;50936;51.660;5.616;2023-02-21T01:54:01;101692.13;;;7.92;100.00
64544;BME280;50936;51.660;5.616;2023-02-21T01:56:49;101687.53;;;7.94;100.00
64544;BME280;50936;51.660;5.616;2023-02-21T01:59:36;101692.91;;;7.94;100.00
64544;BME280;50936;51.660;5.616;2023-02-21T02:02:32;101686.66;;;7.94;100.00
64544;BME280;50936;51.660;5.616;2023-02-21T02:05:22;101680.41;;;7.93;100.00
64544;BME280;50936;51.660;5.616;2023-02-21T02:08:11;101677.72;;;7.93;100.00
64544;BME280;50936;51.660;5.616;2023-02-21T02:11:39;101680.41;;;7.93;100.00
64544;BME280;50936;51.660;5.616;2023-02-21T02:32:51;101660.25;;;7.83;100.00
64544;BME280;50936;51.660;5.616;2023-02-21T02:35:30;101664.66;;;7.84;100.00
64544;BME280;50936;51.660;5.616;2023-02-21T02:38:24;101670.19;;;7.81;100.00
64544;BME280;50936;51.660;5.616;2023-02-21T02:44:05;101666.56;;;7.82;100.00
64544;BME280;50936;51.660;5.616;2023-02-21T02:47:00;101658.44;;;7.83;100.00
64544;BME280;50936;51.660;5.616;2023-02-21T02:49:32;101661.06;;;7.85;100.00
64544;BME280;50936;51.660;5.616;2023-02-21T02:52:06;101661.91;;;7.85;100.00
64544;BME280;50936;51.660;5.616;2023-02-21T02:54:35;101663.63;;;7.88;100.00
64544;BME280;50936;51.660;5.616;2023-02-21T02:57:04;101657.44;;;7.86;100.00
64544;BME280;50936;51.660;5.616;2023-02-21T02:59:39;101650.28;;;7.85;100.00
64544;BME280;50936;51.660;5.616;2023-02-21T03:11:16;101653.03;;;7.83;100.00
64544;BME280;50936;51.660;5.616;2023-02-21T03:16:49;101652.97;;;7.85;100.00
64544;BME280;50936;51.660;5.616;2023-02-21T03:19:25;101648.53;;;7.84;100.00
64544;BME280;50936;51.660;5.616;2023-02-21T03:21:59;101659.28;;;7.84;100.00
64544;BME280;50936;51.660;5.616;2023-02-21T03:24:31;101656.59;;;7.84;100.00
64544;BME280;50936;51.660;5.616;2023-02-21T03:27:04;101661.91;;;7.85;100.00
64544;BME280;50936;51.660;5.616;2023-02-21T03:29:59;101662.81;;;7.86;100.00
64544;BME280;50936;51.660;5.616;2023-02-21T03:35:00;101656.47;;;7.87;100.00
64544;BME280;50936;51.660;5.616;2023-02-21T03:37:42;101662.66;;;7.89;100.00
64544;BME280;50936;51.660;5.616;2023-02-21T03:40:26;101650.16;;;7.88;100.00
64544;BME280;50936;51.660;5.616;2023-02-21T03:42:58;101650.28;;;7.85;100.00
64544;BME280;50936;51.660;5.616;2023-02-21T03:45:31;101646.81;;;7.83;100.00
64544;BME280;50936;51.660;5.616;2023-02-21T03:48:12;101651.38;;;7.81;100.00
64544;BME280;50936;51.660;5.616;2023-02-21T03:50:49;101644.25;;;7.80;100.00
64544;BME280;50936;51.660;5.616;2023-02-21T03:53:17;101654.19;;;7.78;100.00
64544;BME280;50936;51.660;5.616;2023-02-21T03:55:44;101659.28;;;7.84;100.00
64544;BME280;50936;51.660;5.616;2023-02-21T03:58:17;101654.59;;;7.89;100.00
64544;BME280;50936;51.660;5.616;2023-02-21T04:00:44;101659.03;;;7.90;100.00
64544;BME280;50936;51.660;5.616;2023-02-21T04:03:12;101660.75;;;7.91;100.00
64544;BME280;50936;51.660;5.616;2023-02-21T04:05:49;101656.47;;;7.87;100.00
64544;BME280;50936;51.660;5.616;2023-02-21T04:08:16;101652.06;;;7.86;100.00
64544;BME280;50936;51.660;5.616;2023-02-21T04:10:43;101649.44;;;7.84;100.00
64544;BME280;50936;51.660;5.616;2023-02-21T04:13:19;101646.81;;;7.83;100.00
64544;BME280;50936;51.660;5.616;2023-02-21T04:15:49;101642.28;;;7.83;100.00
64544;BME280;50936;51.660;5.616;2023-02-21T04:18:16;101644.91;;;7.85;100.00
64544;BME280;50936;51.660;5.616;2023-02-21T04:20:45;101647.47;;;7.88;100.00
64544;BME280;50936;51.660;5.616;2023-02-21T04:23:20;101634.03;;;7.88;100.00
64544;BME280;50936;51.660;5.616;2023-02-21T04:25:48;101635.75;;;7.89;100.00
64544;BME280;50936;51.660;5.616;2023-02-21T04:28:22;101630.38;;;7.89;100.00
64544;BME280;50936;51.660;5.616;2023-02-21T04:30:49;101649.25;;;7.87;100.00
64544;BME280;50936;51.660;5.616;2023-02-21T04:33:16;101634.16;;;7.85;100.00
64544;BME280;50936;51.660;5.616;2023-02-21T04:35:43;101640.47;;;7.84;100.00
64544;BME280;50936;51.660;5.616;2023-02-21T04:38:21;101631.75;;;7.79;100.00
64544;BME280;50936;51.660;5.616;2023-02-21T04:40:48;101629.19;;;7.76;100.00
64544;BME280;50936;51.660;5.616;2023-02-21T04:43:15;101632.81;;;7.75;100.00
64544;BME280;50936;51.660;5.616;2023-02-21T04:45:41;101632.97;;;7.71;100.00
64544;BME280;50936;51.660;5.616;2023-02-21T04:48:08;101626.69;;;7.71;100.00
64544;BME280;50936;51.660;5.616;2023-02-21T04:50:35;101627.59;;;7.71;100.00
64544;BME280;50936;51.660;5.616;2023-02-21T04:53:02;101625.69;;;7.74;100.00
64544;BME280;50936;51.660;5.616;2023-02-21T04:55:29;101628.25;;;7.77;100.00
64544;BME280;50936;51.660;5.616;2023-02-21T04:57:56;101627.38;;;7.76;100.00
64544;BME280;50936;51.660;5.616;2023-02-21T05:00:22;101621.19;;;7.74;100.00
64544;BME280;50936;51.660;5.616;2023-02-21T05:02:50;101622.22;;;7.71;100.00
64544;BME280;50936;51.660;5.616;2023-02-21T05:05:16;101623.16;;;7.70;100.00
64544;BME280;50936;51.660;5.616;2023-02-21T05:07:43;101630.34;;;7.70;100.00
64544;BME280;50936;51.660;5.616;2023-02-21T05:10:11;101622.22;;;7.71;100.00
64544;BME280;50936;51.660;5.616;2023-02-21T05:12:38;101620.31;;;7.74;100.00
64544;BME280;50936;51.660;5.616;2023-02-21T05:15:06;101623.94;;;7.72;100.00
64544;BME280;50936;51.660;5.616;2023-02-21T05:17:34;101632.97;;;7.71;100.00
64544;BME280;50936;51.660;5.616;2023-02-21T05:20:01;101632.00;;;7.72;100.00
64544;BME280;50936;51.660;5.616;2023-02-21T05:22:29;101645.38;;;7.74;100.00
64544;BME280;50936;51.660;5.616;2023-02-21T05:24:56;101636.34;;;7.77;100.00
64544;BME280;50936;51.660;5.616;2023-02-21T05:27:23;101631.81;;;7.77;100.00
64544;BME280;50936;51.660;5.616;2023-02-21T05:29:52;101629.19;;;7.76;100.00
64544;BME280;50936;51.660;5.616;2023-02-21T05:32:20;101629.31;;;7.72;100.00
64544;BME280;50936;51.660;5.616;2023-02-21T05:34:48;101625.84;;;7.70;100.00
64544;BME280;50936;51.660;5.616;2023-02-21T05:37:16;101618.72;;;7.69;100.00
64544;BME280;50936;51.660;5.616;2023-02-21T05:39:47;101624.09;;;7.69;100.00
64544;BME280;50936;51.660;5.616;2023-02-21T05:42:14;101616.09;;;7.68;100.00
64544;BME280;50936;51.660;5.616;2023-02-21T05:44:44;101611.59;;;7.68;100.00
64544;BME280;50936;51.660;5.616;2023-02-21T05:47:13;101611.59;;;7.68;100.00
64544;BME280;50936;51.660;5.616;2023-02-21T05:49:41;101614.34;;;7.67;100.00
64544;BME280;50936;51.660;5.616;2023-02-21T05:52:13;101626.00;;;7.67;100.00
64544;BME280;50936;51.660;5.616;2023-02-21T05:54:42;101631.22;;;7.70;100.00
64544;BME280;50936;51.660;5.616;2023-02-21T05:57:09;101634.84;;;7.69;100.00
64544;BME280;50936;51.660;5.616;2023-02-21T05:59:37;101634.69;;;7.72;100.00
64544;BME280;50936;51.660;5.616;2023-02-21T06:02:05;101640.88;;;7.75;100.00
64544;BME280;50936;51.660;5.616;2023-02-21T06:04:32;101639.94;;;7.76;100.00
64544;BME280;50936;51.660;5.616;2023-02-21T06:06:58;101639.09;;;7.75;100.00
64544;BME280;50936;51.660;5.616;2023-02-21T06:09:25;101639.09;;;7.75;100.00
64544;BME280;50936;51.660;5.616;2023-02-21T06:11:55;101633.66;;;7.77;100.00
64544;BME280;50936;51.660;5.616;2023-02-21T06:14:23;101638.19;;;7.75;100.00
64544;BME280;50936;51.660;5.616;2023-02-21T06:16:50;101634.56;;;7.76;100.00
64544;BME280;50936;51.660;5.616;2023-02-21T06:19:18;101631.09;;;7.74;100.00
64544;BME280;50936;51.660;5.616;2023-02-21T06:21:45;101634.69;;;7.72;100.00
64544;BME280;50936;51.660;5.616;2023-02-21T06:24:12;101634.84;;;7.69;100.00
64544;BME280;50936;51.660;5.616;2023-02-21T06:26:39;101631.50;;;7.64;100.00
64544;BME280;50936;51.660;5.616;2023-02-21T06:29:09;101626.25;;;7.61;100.00
64544;BME280;50936;51.660;5.616;2023-02-21T06:31:37;101629.91;;;7.60;100.00
64544;BME280;50936;51.660;5.616;2023-02-21T06:34:04;101638.88;;;7.59;100.00
64544;BME280;50936;51.660;5.616;2023-02-21T06:36:32;101640.91;;;7.54;100.00
64544;BME280;50936;51.660;5.616;2023-02-21T06:38:59;101642.78;;;7.52;100.00
64544;BME280;50936;51.660;5.616;2023-02-21T06:41:28;101642.91;;;7.49;100.00
64544;BME280;50936;51.660;5.616;2023-02-21T06:43:57;101642.91;;;7.49;100.00
64544;BME280;50936;51.660;5.616;2023-02-21T06:46:27;101640.38;;;7.46;100.00
64544;BME280;50936;51.660;5.616;2023-02-21T06:48:56;101650.16;;;7.47;100.00
64544;BME280;50936;51.660;5.616;2023-02-21T06:51:23;101642.16;;;7.45;100.00
64544;BME280;50936;51.660;5.616;2023-02-21T06:53:56;101641.31;;;7.45;100.00
64544;BME280;50936;51.660;5.616;2023-02-21T06:56:24;101650.44;;;7.41;100.00
64544;BME280;50936;51.660;5.616;2023-02-21T06:58:52;101648.69;;;7.40;100.00
64544;BME280;50936;51.660;5.616;2023-02-21T07:01:20;101643.47;;;7.37;100.00
64544;BME280;50936;51.660;5.616;2023-02-21T07:03:49;101648.84;;;7.37;100.00
64544;BME280;50936;51.660;5.616;2023-02-21T07:06:17;101651.53;;;7.37;100.00
64544;BME280;50936;51.660;5.616;2023-02-21T07:08:44;101656.91;;;7.37;100.00
64544;BME280;50936;51.660;5.616;2023-02-21T07:11:12;101654.06;;;7.40;100.00
64544;BME280;50936;51.660;5.616;2023-02-21T07:13:46;101650.38;;;7.42;100.00
64544;BME280;50936;51.660;5.616;2023-02-21T07:16:17;101659.31;;;7.43;100.00
64544;BME280;50936;51.660;5.616;2023-02-21T07:18:44;101660.25;;;7.42;100.00
64544;BME280;50936;51.660;5.616;2023-02-21T07:21:12;101659.31;;;7.43;100.00
64544;BME280;50936;51.660;5.616;2023-02-21T07:23:44;101649.31;;;7.46;100.00
64544;BME280;50936;51.660;5.616;2023-02-21T07:26:12;101645.69;;;7.47;100.00
64544;BME280;50936;51.660;5.616;2023-02-21T07:28:40;101644.06;;;7.43;100.00
64544;BME280;50936;51.660;5.616;2023-02-21T07:31:07;101648.44;;;7.46;100.00
64544;BME280;50936;51.660;5.616;2023-02-21T07:33:36;101653.81;;;7.46;100.00
64544;BME280;50936;51.660;5.616;2023-02-21T07:36:03;101648.44;;;7.46;100.00
64544;BME280;50936;51.660;5.616;2023-02-21T07:38:30;101648.56;;;7.43;100.00
64544;BME280;50936;51.660;5.616;2023-02-21T07:41:01;101643.13;;;7.44;100.00
64544;BME280;50936;51.660;5.616;2023-02-21T07:43:30;101645.06;;;7.41;100.00
64544;BME280;50936;51.660;5.616;2023-02-21T07:45:57;101650.44;;;7.41;100.00
64544;BME280;50936;51.660;5.616;2023-02-21T07:48:24;101657.66;;;7.40;100.00
64544;BME280;50936;51.660;5.616;2023-02-21T07:50:51;101654.06;;;7.40;100.00
64544;BME280;50936;51.660;5.616;2023-02-21T07:53:18;101661.88;;;7.46;100.00
64544;BME280;50936;51.660;5.616;2023-02-21T07:55:45;101655.41;;;7.50;100.00
64544;BME280;50936;51.660;5.616;2023-02-21T07:58:12;101656.28;;;7.50;100.00
64544;BME280;50936;51.660;5.616;2023-02-21T08:00:39;101650.03;;;7.50;100.00
64544;BME280;50936;51.660;5.616;2023-02-21T08:03:06;101650.03;;;7.50;100.00
64544;BME280;50936;51.660;5.616;2023-02-21T08:05:33;101655.31;;;7.53;100.00
64544;BME280;50936;51.660;5.616;2023-02-21T08:08:00;101654.41;;;7.52;100.00
64544;BME280;50936;51.660;5.616;2023-02-21T08:10:27;101660.81;;;7.50;100.00
64544;BME280;50936;51.660;5.616;2023-02-21T08:12:54;101667.94;;;7.51;100.00
64544;BME280;50936;51.660;5.616;2023-02-21T08:15:21;101654.50;;;7.51;100.00
64544;BME280;50936;51.660;5.616;2023-02-21T08:17:49;101661.66;;;7.50;100.00
64544;BME280;50936;51.660;5.616;2023-02-21T08:20:17;101652.72;;;7.50;100.00
64544;BME280;50936;51.660;5.616;2023-02-21T08:22:44;101659.03;;;7.49;100.00
64544;BME280;50936;51.660;5.616;2023-02-21T08:25:13;101656.50;;;7.46;100.00
64544;BME280;50936;51.660;5.616;2023-02-21T08:27:42;101661.88;;;7.46;100.00
64544;BME280;50936;51.660;5.616;2023-02-21T08:30:12;101659.13;;;7.47;100.00
64544;BME280;50936;51.660;5.616;2023-02-21T08:32:42;101662.81;;;7.45;100.00
64544;BME280;50936;51.660;5.616;2023-02-21T08:35:15;101657.56;;;7.42;100.00
64544;BME280;50936;51.660;5.616;2023-02-21T08:37:45;101657.56;;;7.42;100.00
64544;BME280;50936;51.660;5.616;2023-02-21T08:40:17;101663.13;;;7.37;100.00
64544;BME280;50936;51.660;5.616;2023-02-21T08:42:48;101659.59;;;7.37;100.00
64544;BME280;50936;51.660;5.616;2023-02-21T08:45:19;101659.66;;;7.35;100.00
64544;BME280;50936;51.660;5.616;2023-02-21T08:47:48;101654.22;;;7.37;100.00
64544;BME280;50936;51.660;5.616;2023-02-21T08:50:17;101652.34;;;7.39;100.00
64544;BME280;50936;51.660;5.616;2023-02-21T08:52:46;101643.31;;;7.40;100.00
64544;BME280;50936;51.660;5.616;2023-02-21T08:55:14;101654.06;;;7.40;100.00
64544;BME280;50936;51.660;5.616;2023-02-21T08:57:42;101648.69;;;7.40;100.00
64544;BME280;50936;51.660;5.616;2023-02-21T09:00:10;101648.69;;;7.40;100.00
64544;BME280;50936;51.660;5.616;2023-02-21T09:02:39;101648.78;;;7.38;100.00
64544;BME280;50936;51.660;5.616;2023-02-21T09:05:16;101650.56;;;7.38;100.00
64544;BME280;50936;51.660;5.616;2023-02-21T09:07:48;101647.88;;;7.38;100.00
64544;BME280;50936;51.660;5.616;2023-02-21T09:10:16;101643.41;;;7.38;100.00
64544;BME280;50936;51.660;5.616;2023-02-21T09:12:43;101647.06;;;7.36;100.00
64544;BME280;50936;51.660;5.616;2023-02-21T09:15:13;101645.34;;;7.35;100.00
64544;BME280;50936;51.660;5.616;2023-02-21T09:17:40;101644.34;;;7.37;100.00
64544;BME280;50936;51.660;5.616;2023-02-21T09:20:09;101637.13;;;7.38;100.00
64544;BME280;50936;51.660;5.616;2023-02-21T09:22:42;101631.81;;;7.36;100.00
64544;BME280;50936;51.660;5.616;2023-02-21T09:25:11;101629.97;;;7.38;100.00
64544;BME280;50936;51.660;5.616;2023-02-21T09:27:39;101632.84;;;7.33;100.00
64544;BME280;50936;51.660;5.616;2023-02-21T09:30:17;101632.97;;;7.30;100.00
64544;BME280;50936;51.660;5.616;2023-02-21T09:32:47;101630.34;;;7.29;100.00
64544;BME280;50936;51.660;5.616;2023-02-21T09:35:14;101624.91;;;7.30;100.00
64544;BME280;50936;51.660;5.616;2023-02-21T09:37:43;101629.34;;;7.31;100.00
64544;BME280;50936;51.660;5.616;2023-02-21T09:43:02;101634.72;;;7.31;100.00
64544;BME280;50936;51.660;5.616;2023-02-21T09:45:32;101621.22;;;7.33;100.00
64544;BME280;50936;51.660;5.616;2023-02-21T09:48:07;101619.47;;;7.32;100.00
64544;BME280;50936;51.660;5.616;2023-02-21T09:50:44;101617.63;;;7.32;100.00
64544;BME280;50936;51.660;5.616;2023-02-21T09:53:19;101618.47;;;7.35;100.00
64544;BME280;50936;51.660;5.616;2023-02-21T09:55:53;101632.56;;;7.40;100.00
64544;BME280;50936;51.660;5.616;2023-02-21T09:58:25;101623.56;;;7.41;100.00
64544;BME280;50936;51.660;5.616;2023-02-21T10:00:57;101627.19;;;7.40;100.00
64544;BME280;50936;51.660;5.616;2023-02-21T10:03:45;101624.38;;;7.43;100.00
64544;BME280;50936;51.660;5.616;2023-02-21T10:15:24;101629.56;;;7.47;100.00
64544;BME280;50936;51.660;5.616;2023-02-21T10:21:43;101625.00;;;7.49;100.00
64544;BME280;50936;51.660;5.616;2023-02-21T10:24:21;101626.66;;;7.52;100.00
64544;BME280;50936;51.660;5.616;2023-02-21T10:27:06;101624.78;;;7.54;100.00
64544;BME280;50936;51.660;5.616;2023-02-21T10:32:36;101622.88;;;7.56;100.00
64544;BME280;50936;51.660;5.616;2023-02-21T10:35:04;101621.16;;;7.55;100.00
64544;BME280;50936;51.660;5.616;2023-02-21T10:37:39;101620.28;;;7.55;100.00
64544;BME280;50936;51.660;5.616;2023-02-21T10:40:28;101628.25;;;7.56;100.00
64544;BME280;50936;51.660;5.616;2023-02-21T10:43:36;101621.16;;;7.55;100.00
64544;BME280;50936;51.660;5.616;2023-02-21T10:46:23;101628.25;;;7.56;100.00
64544;BME280;50936;51.660;5.616;2023-02-21T10:49:20;101622.88;;;7.56;100.00
64544;BME280;50936;51.660;5.616;2023-02-21T10:52:08;101627.41;;;7.56;100.00
64544;BME280;50936;51.660;5.616;2023-02-21T10:58:06;101626.38;;;7.58;100.00
64544;BME280;50936;51.660;5.616;2023-02-21T11:00:41;101624.50;;;7.60;100.00
64544;BME280;50936;51.660;5.616;2023-02-21T11:05:54;101617.94;;;7.67;100.00
64544;BME280;50936;51.660;5.616;2023-02-21T11:08:52;101618.56;;;7.72;100.00
64544;BME280;50936;51.660;5.616;2023-02-21T11:11:32;101621.19;;;7.74;100.00
64544;BME280;50936;51.660;5.616;2023-02-21T11:14:25;101629.19;;;7.76;100.00
64544;BME280;50936;51.660;5.616;2023-02-21T11:17:21;101614.09;;;7.73;100.00
64544;BME280;50936;51.660;5.616;2023-02-21T11:24:57;101612.03;;;7.78;100.00
64544;BME280;50936;51.660;5.616;2023-02-21T11:27:35;101608.84;;;7.89;100.00
64544;BME280;50936;51.660;5.616;2023-02-21T11:30:13;101601.59;;;7.91;100.00
64544;BME280;50936;51.660;5.616;2023-02-21T11:32:55;101597.84;;;7.95;100.00
64544;BME280;50936;51.660;5.616;2023-02-21T11:38:36;101602.78;;;8.04;100.00
64544;BME280;50936;51.660;5.616;2023-02-21T11:43:50;101592.44;;;8.14;100.00
64544;BME280;50936;51.660;5.616;2023-02-21T11:46:33;101585.97;;;8.18;100.00
64544;BME280;50936;51.660;5.616;2023-02-21T11:51:50;101590.50;;;8.18;100.00
64544;BME280;50936;51.660;5.616;2023-02-21T11:54:26;101585.03;;;8.19;100.00
64544;BME280;50936;51.660;5.616;2023-02-21T12:00:05;101585.47;;;8.10;100.00
64544;BME280;50936;51.660;5.616;2023-02-21T12:02:53;101576.75;;;8.05;100.00
64544;BME280;50936;51.660;5.616;2023-02-21T12:05:39;101585.00;;;8.00;100.00
64544;BME280;50936;51.660;5.616;2023-02-21T12:17:31;101570.34;;;8.07;100.00
64544;BME280;50936;51.660;5.616;2023-02-21T12:23:24;101561.47;;;8.05;100.00
64544;BME280;50936;51.660;5.616;2023-02-21T12:29:24;101556.88;;;8.07;100.00
64544;BME280;50936;51.660;5.616;2023-02-21T12:32:06;101550.44;;;8.12;100.00
64544;BME280;50936;51.660;5.616;2023-02-21T12:38:12;101550.47;;;8.29;100.00
64544;BME280;50936;51.660;5.616;2023-02-21T12:47:03;101541.53;;;8.47;100.00
64544;BME280;50936;51.660;5.616;2023-02-21T12:52:31;101542.81;;;8.58;100.00
64544;BME280;50936;51.660;5.616;2023-02-21T12:57:50;101543.75;;;8.57;100.00
64544;BME280;50936;51.660;5.616;2023-02-21T13:00:25;101539.47;;;8.53;100.00
64544;BME280;50936;51.660;5.616;2023-02-21T13:05:55;101529.09;;;8.45;100.00
64544;BME280;50936;51.660;5.616;2023-02-21T13:08:31;101537.19;;;8.45;100.00
64544;BME280;50936;51.660;5.616;2023-02-21T13:11:13;101529.03;;;8.46;100.00
64544;BME280;50936;51.660;5.616;2023-02-21T13:14:01;101528.84;;;8.50;100.00
64544;BME280;50936;51.660;5.616;2023-02-21T13:16:36;101525.09;;;8.54;100.00
64544;BME280;50936;51.660;5.616;2023-02-21T13:19:06;101523.00;;;8.59;100.00
64544;BME280;50936;51.660;5.616;2023-02-21T13:21:56;101526.41;;;8.62;100.00
64544;BME280;50936;51.660;5.616;2023-02-21T13:25:05;101520.66;;;8.70;100.00
64544;BME280;50936;51.660;5.616;2023-02-21T13:27:56;101511.63;;;8.71;100.00
64544;BME280;50936;51.660;5.616;2023-02-21T13:32:59;101511.00;;;8.83;100.00
64544;BME280;50936;51.660;5.616;2023-02-21T13:35:36;101509.97;;;8.86;100.00
64544;BME280;50936;51.660;5.616;2023-02-21T13:38:07;101502.59;;;8.90;100.00
64544;BME280;50936;51.660;5.616;2023-02-21T13:41:01;101499.75;;;8.93;100.00
64544;BME280;50936;51.660;5.616;2023-02-21T13:43:36;101502.53;;;8.91;100.00
64544;BME280;50936;51.660;5.616;2023-02-21T13:52:24;101502.91;;;8.66;100.00
64544;BME280;50936;51.660;5.616;2023-02-21T13:57:47;101493.50;;;8.57;100.00
64544;BME280;50936;51.660;5.616;2023-02-21T14:13:52;101485.78;;;8.50;100.00
64544;BME280;50936;51.660;5.616;2023-02-21T14:16:36;101493.13;;;8.46;100.00
64544;BME280;50936;51.660;5.616;2023-02-21T14:19:19;101490.66;;;8.41;100.00
64544;BME280;50936;51.660;5.616;2023-02-21T14:24:42;101486.09;;;8.43;100.00
64544;BME280;50936;51.660;5.616;2023-02-21T14:32:45;101479.09;;;8.39;100.00
64544;BME280;50936;51.660;5.616;2023-02-21T14:37:57;101470.03;;;8.42;100.00
64544;BME280;50936;51.660;5.616;2023-02-21T14:43:19;101470.88;;;8.42;100.00
64544;BME280;50936;51.660;5.616;2023-02-21T14:46:30;101468.19;;;8.42;100.00
64544;BME280;50936;51.660;5.616;2023-02-21T15:01:07;101470.38;;;8.34;100.00
64544;BME280;50936;51.660;5.616;2023-02-21T15:06:28;101457.72;;;8.36;100.00
64544;BME280;50936;51.660;5.616;2023-02-21T15:09:10;101453.19;;;8.37;100.00
64544;BME280;50936;51.660;5.616;2023-02-21T15:11:39;101452.47;;;8.33;100.00
64544;BME280;50936;51.660;5.616;2023-02-21T15:14:22;101455.09;;;8.35;100.00
64544;BME280;50936;51.660;5.616;2023-02-21T15:19:32;101454.31;;;8.33;100.00
64544;BME280;50936;51.660;5.616;2023-02-21T15:22:14;101447.91;;;8.35;100.00
64544;BME280;50936;51.660;5.616;2023-02-21T15:33:18;101441.44;;;8.20;100.00
64544;BME280;50936;51.660;5.616;2023-02-21T15:35:56;101442.50;;;8.18;100.00
64544;BME280;50936;51.660;5.616;2023-02-21T15:41:18;101444.88;;;8.24;100.00
64544;BME280;50936;51.660;5.616;2023-02-21T15:44:18;101445.50;;;8.29;100.00
64544;BME280;50936;51.660;5.616;2023-02-21T15:46:58;101440.44;;;8.23;100.00
64544;BME280;50936;51.660;5.616;2023-02-21T15:49:34;101438.28;;;8.12;100.00
64544;BME280;50936;51.660;5.616;2023-02-21T15:52:06;101433.50;;;8.19;100.00
64544;BME280;50936;51.660;5.616;2023-02-21T15:54:36;101434.16;;;8.22;100.00
64544;BME280;50936;51.660;5.616;2023-02-21T15:59:38;101440.59;;;8.20;100.00
64544;BME280;50936;51.660;5.616;2023-02-21T16:02:19;101436.31;;;8.16;100.00
64544;BME280;50936;51.660;5.616;2023-02-21T16:04:50;101431.88;;;8.15;100.00
64544;BME280;50936;51.660;5.616;2023-02-21T16:07:32;101429.97;;;8.17;100.00
64544;BME280;50936;51.660;5.616;2023-02-21T16:10:06;101427.28;;;8.17;100.00
64544;BME280;50936;51.660;5.616;2023-02-21T16:12:42;101432.78;;;8.15;100.00
64544;BME280;50936;51.660;5.616;2023-02-21T16:17:44;101434.09;;;8.06;100.00
64544;BME280;50936;51.660;5.616;2023-02-21T16:20:21;101429.09;;;7.99;100.00
64544;BME280;50936;51.660;5.616;2023-02-21T16:26:02;101438.41;;;7.92;100.00
64544;BME280;50936;51.660;5.616;2023-02-21T16:28:36;101427.59;;;7.93;100.00
64544;BME280;50936;51.660;5.616;2023-02-21T16:31:16;101430.03;;;7.98;100.00
64544;BME280;50936;51.660;5.616;2023-02-21T16:33:54;101429.38;;;7.93;100.00
64544;BME280;50936;51.660;5.616;2023-02-21T16:36:25;101428.00;;;7.84;100.00
64544;BME280;50936;51.660;5.616;2023-02-21T16:38:55;101416.75;;;7.76;100.00
64544;BME280;50936;51.660;5.616;2023-02-21T16:41:23;101424.97;;;7.72;100.00